sensor_id;sensor_type;location;lat;lon;timestamp;temperature;humidity
820;DHT22;392;48.838;2.322;2023-01-24T00:01:48;4.20;47.60
820;DHT22;392;48.838;2.322;2023-01-24T00:04:15;4.20;48.00
820;DHT22;392;48.838;2.322;2023-01-24T00:06:44;4.30;48.20
820;DHT22;392;48.838;2.322;2023-01-24T00:09:11;4.30;48.20
820;DHT22;392;48.838;2.322;2023-01-24T00:11:39;4.30;48.40
820;DHT22;392;48.838;2.322;2023-01-24T00:14:06;4.40;48.60
820;DHT22;392;48.838;2.322;2023-01-24T00:16:34;4.50;48.20
820;DHT22;392;48.838;2.322;2023-01-24T00:19:01;4.50;47.90
820;DHT22;392;48.838;2.322;2023-01-24T00:21:28;4.40;47.70
820;DHT22;392;48.838;2.322;2023-01-24T00:23:57;4.40;48.30
820;DHT22;392;48.838;2.322;2023-01-24T00:26:25;4.40;48.90
820;DHT22;392;48.838;2.322;2023-01-24T00:28:52;4.40;48.80
820;DHT22;392;48.838;2.322;2023-01-24T00:31:22;4.40;49.00
820;DHT22;392;48.838;2.322;2023-01-24T00:33:49;4.40;49.60
820;DHT22;392;48.838;2.322;2023-01-24T00:36:17;4.50;48.80
820;DHT22;392;48.838;2.322;2023-01-24T00:38:44;4.50;48.60
820;DHT22;392;48.838;2.322;2023-01-24T00:41:13;4.50;48.70
820;DHT22;392;48.838;2.322;2023-01-24T00:43:40;4.50;49.40
820;DHT22;392;48.838;2.322;2023-01-24T00:46:08;4.50;48.90
820;DHT22;392;48.838;2.322;2023-01-24T00:48:36;4.40;48.90
820;DHT22;392;48.838;2.322;2023-01-24T00:51:04;4.40;49.40
820;DHT22;392;48.838;2.322;2023-01-24T00:53:32;4.40;49.60
820;DHT22;392;48.838;2.322;2023-01-24T00:55:59;4.40;49.70
820;DHT22;392;48.838;2.322;2023-01-24T00:58:28;4.40;49.40
820;DHT22;392;48.838;2.322;2023-01-24T01:00:56;4.40;49.70
820;DHT22;392;48.838;2.322;2023-01-24T01:03:26;4.40;49.60
820;DHT22;392;48.838;2.322;2023-01-24T01:05:58;4.40;49.20
820;DHT22;392;48.838;2.322;2023-01-24T01:08:26;4.40;49.70
820;DHT22;392;48.838;2.322;2023-01-24T01:10:53;4.40;49.20
820;DHT22;392;48.838;2.322;2023-01-24T01:13:22;4.30;49.60
820;DHT22;392;48.838;2.322;2023-01-24T01:15:51;4.20;50.00
820;DHT22;392;48.838;2.322;2023-01-24T01:18:18;4.30;50.20
820;DHT22;392;48.838;2.322;2023-01-24T01:20:49;4.20;49.70
820;DHT22;392;48.838;2.322;2023-01-24T01:23:17;4.10;50.30
820;DHT22;392;48.838;2.322;2023-01-24T01:25:45;4.10;51.00
820;DHT22;392;48.838;2.322;2023-01-24T01:28:13;4.00;51.00
820;DHT22;392;48.838;2.322;2023-01-24T01:30:40;4.00;51.60
820;DHT22;392;48.838;2.322;2023-01-24T01:33:09;4.00;51.80
820;DHT22;392;48.838;2.322;2023-01-24T01:35:36;4.10;51.40
820;DHT22;392;48.838;2.322;2023-01-24T01:38:04;4.00;51.40
820;DHT22;392;48.838;2.322;2023-01-24T01:40:31;4.00;52.20
820;DHT22;392;48.838;2.322;2023-01-24T01:42:58;4.00;53.40
820;DHT22;392;48.838;2.322;2023-01-24T01:45:38;4.10;52.30
820;DHT22;392;48.838;2.322;2023-01-24T01:48:19;4.20;51.70
820;DHT22;392;48.838;2.322;2023-01-24T01:50:56;4.20;51.90
820;DHT22;392;48.838;2.322;2023-01-24T01:53:28;4.20;52.20
820;DHT22;392;48.838;2.322;2023-01-24T01:56:02;4.20;51.60
820;DHT22;392;48.838;2.322;2023-01-24T01:58:32;4.20;51.90
820;DHT22;392;48.838;2.322;2023-01-24T02:01:00;4.20;52.00
820;DHT22;392;48.838;2.322;2023-01-24T02:03:35;4.20;52.40
820;DHT22;392;48.838;2.322;2023-01-24T02:06:06;4.30;52.00
820;DHT22;392;48.838;2.322;2023-01-24T02:08:35;4.30;51.10
820;DHT22;392;48.838;2.322;2023-01-24T02:11:03;4.20;51.40
820;DHT22;392;48.838;2.322;2023-01-24T02:13:48;4.20;51.80
820;DHT22;392;48.838;2.322;2023-01-24T02:16:37;4.20;52.10
820;DHT22;392;48.838;2.322;2023-01-24T02:19:06;4.20;51.90
820;DHT22;392;48.838;2.322;2023-01-24T02:21:34;4.20;51.40
820;DHT22;392;48.838;2.322;2023-01-24T02:24:04;4.20;51.50
820;DHT22;392;48.838;2.322;2023-01-24T02:26:38;4.10;51.00
820;DHT22;392;48.838;2.322;2023-01-24T02:29:08;4.10;51.20
820;DHT22;392;48.838;2.322;2023-01-24T02:31:54;3.90;51.90
820;DHT22;392;48.838;2.322;2023-01-24T02:34:23;3.90;52.30
820;DHT22;392;48.838;2.322;2023-01-24T02:36:52;3.90;52.50
820;DHT22;392;48.838;2.322;2023-01-24T02:39:24;3.90;52.70
820;DHT22;392;48.838;2.322;2023-01-24T02:42:00;3.90;52.40
820;DHT22;392;48.838;2.322;2023-01-24T02:44:37;4.00;51.30
820;DHT22;392;48.838;2.322;2023-01-24T02:47:08;3.90;50.80
820;DHT22;392;48.838;2.322;2023-01-24T02:49:35;3.90;51.60
820;DHT22;392;48.838;2.322;2023-01-24T02:52:03;3.90;51.20
820;DHT22;392;48.838;2.322;2023-01-24T02:54:48;3.80;51.60
820;DHT22;392;48.838;2.322;2023-01-24T02:57:17;3.90;51.50
820;DHT22;392;48.838;2.322;2023-01-24T03:00:03;3.90;51.50
820;DHT22;392;48.838;2.322;2023-01-24T03:02:32;3.90;50.50
820;DHT22;392;48.838;2.322;2023-01-24T03:04:59;3.90;50.60
820;DHT22;392;48.838;2.322;2023-01-24T03:07:27;3.80;51.00
820;DHT22;392;48.838;2.322;2023-01-24T03:10:09;3.70;51.20
820;DHT22;392;48.838;2.322;2023-01-24T03:12:39;3.70;52.40
820;DHT22;392;48.838;2.322;2023-01-24T03:15:24;3.70;53.10
820;DHT22;392;48.838;2.322;2023-01-24T03:18:09;3.70;51.50
820;DHT22;392;48.838;2.322;2023-01-24T03:20:54;3.60;52.10
820;DHT22;392;48.838;2.322;2023-01-24T03:23:39;3.60;53.00
820;DHT22;392;48.838;2.322;2023-01-24T03:26:25;3.70;51.90
820;DHT22;392;48.838;2.322;2023-01-24T03:29:12;3.60;51.90
820;DHT22;392;48.838;2.322;2023-01-24T03:31:58;3.50;53.20
820;DHT22;392;48.838;2.322;2023-01-24T03:34:43;3.50;53.30
820;DHT22;392;48.838;2.322;2023-01-24T03:37:20;3.60;53.70
820;DHT22;392;48.838;2.322;2023-01-24T03:40:05;3.70;52.60
820;DHT22;392;48.838;2.322;2023-01-24T03:42:35;3.70;51.80
820;DHT22;392;48.838;2.322;2023-01-24T03:45:18;3.60;52.40
820;DHT22;392;48.838;2.322;2023-01-24T03:47:49;3.60;52.60
820;DHT22;392;48.838;2.322;2023-01-24T03:50:34;3.60;52.60
820;DHT22;392;48.838;2.322;2023-01-24T03:53:22;3.50;52.70
820;DHT22;392;48.838;2.322;2023-01-24T03:55:51;3.50;53.80
820;DHT22;392;48.838;2.322;2023-01-24T03:58:19;3.40;53.70
820;DHT22;392;48.838;2.322;2023-01-24T04:00:48;3.30;54.20
820;DHT22;392;48.838;2.322;2023-01-24T04:03:34;3.30;55.40
820;DHT22;392;48.838;2.322;2023-01-24T04:06:01;3.40;55.30
820;DHT22;392;48.838;2.322;2023-01-24T04:08:29;3.40;54.50
820;DHT22;392;48.838;2.322;2023-01-24T04:10:57;3.40;54.30
820;DHT22;392;48.838;2.322;2023-01-24T04:13:24;3.50;53.70
820;DHT22;392;48.838;2.322;2023-01-24T04:15:53;3.40;53.60
820;DHT22;392;48.838;2.322;2023-01-24T04:18:43;3.40;54.20
820;DHT22;392;48.838;2.322;2023-01-24T04:21:11;3.40;53.60
820;DHT22;392;48.838;2.322;2023-01-24T04:23:39;3.40;53.60
820;DHT22;392;48.838;2.322;2023-01-24T04:26:06;3.40;53.70
820;DHT22;392;48.838;2.322;2023-01-24T04:28:34;3.40;54.10
820;DHT22;392;48.838;2.322;2023-01-24T04:31:04;3.30;54.50
820;DHT22;392;48.838;2.322;2023-01-24T04:34:06;3.40;54.90
820;DHT22;392;48.838;2.322;2023-01-24T04:36:36;3.40;55.50
820;DHT22;392;48.838;2.322;2023-01-24T04:39:04;3.50;54.90
820;DHT22;392;48.838;2.322;2023-01-24T04:41:39;3.50;53.90
820;DHT22;392;48.838;2.322;2023-01-24T04:44:06;3.50;53.70
820;DHT22;392;48.838;2.322;2023-01-24T04:46:35;3.40;53.70
820;DHT22;392;48.838;2.322;2023-01-24T04:49:02;3.30;54.30
820;DHT22;392;48.838;2.322;2023-01-24T04:51:38;3.30;55.20
820;DHT22;392;48.838;2.322;2023-01-24T04:54:08;3.30;55.00
820;DHT22;392;48.838;2.322;2023-01-24T04:56:37;3.30;55.60
820;DHT22;392;48.838;2.322;2023-01-24T04:59:06;3.20;55.80
820;DHT22;392;48.838;2.322;2023-01-24T05:01:35;3.30;56.70
820;DHT22;392;48.838;2.322;2023-01-24T05:04:10;3.20;55.80
820;DHT22;392;48.838;2.322;2023-01-24T05:06:37;3.30;56.30
820;DHT22;392;48.838;2.322;2023-01-24T05:09:06;3.30;55.70
820;DHT22;392;48.838;2.322;2023-01-24T05:11:48;3.20;56.20
820;DHT22;392;48.838;2.322;2023-01-24T05:14:16;3.20;56.50
820;DHT22;392;48.838;2.322;2023-01-24T05:16:45;3.10;56.90
820;DHT22;392;48.838;2.322;2023-01-24T05:19:12;3.10;57.40
820;DHT22;392;48.838;2.322;2023-01-24T05:21:39;3.10;58.10
820;DHT22;392;48.838;2.322;2023-01-24T05:24:07;3.10;58.70
820;DHT22;392;48.838;2.322;2023-01-24T05:26:35;3.20;58.60
820;DHT22;392;48.838;2.322;2023-01-24T05:29:03;3.20;58.20
820;DHT22;392;48.838;2.322;2023-01-24T05:31:30;3.20;57.90
820;DHT22;392;48.838;2.322;2023-01-24T05:34:00;3.30;57.40
820;DHT22;392;48.838;2.322;2023-01-24T05:36:28;3.30;56.80
820;DHT22;392;48.838;2.322;2023-01-24T05:38:56;3.30;56.80
820;DHT22;392;48.838;2.322;2023-01-24T05:41:24;3.20;57.10
820;DHT22;392;48.838;2.322;2023-01-24T05:43:53;3.20;57.60
820;DHT22;392;48.838;2.322;2023-01-24T05:46:25;3.10;58.10
820;DHT22;392;48.838;2.322;2023-01-24T05:49:15;3.10;57.90
820;DHT22;392;48.838;2.322;2023-01-24T05:51:44;3.10;58.20
820;DHT22;392;48.838;2.322;2023-01-24T05:54:15;3.10;58.30
820;DHT22;392;48.838;2.322;2023-01-24T05:56:54;3.10;58.30
820;DHT22;392;48.838;2.322;2023-01-24T05:59:22;3.00;58.60
820;DHT22;392;48.838;2.322;2023-01-24T06:01:50;3.00;58.60
820;DHT22;392;48.838;2.322;2023-01-24T06:04:21;3.00;59.00
820;DHT22;392;48.838;2.322;2023-01-24T06:06:49;3.00;59.90
820;DHT22;392;48.838;2.322;2023-01-24T06:09:16;3.00;59.00
820;DHT22;392;48.838;2.322;2023-01-24T06:11:43;3.00;60.20
820;DHT22;392;48.838;2.322;2023-01-24T06:14:16;3.10;59.50
820;DHT22;392;48.838;2.322;2023-01-24T06:16:45;3.00;58.90
820;DHT22;392;48.838;2.322;2023-01-24T06:19:14;3.00;59.70
820;DHT22;392;48.838;2.322;2023-01-24T06:21:46;3.00;59.60
820;DHT22;392;48.838;2.322;2023-01-24T06:24:20;3.00;60.00
820;DHT22;392;48.838;2.322;2023-01-24T06:27:09;3.00;60.20
820;DHT22;392;48.838;2.322;2023-01-24T06:29:37;3.00;60.20
820;DHT22;392;48.838;2.322;2023-01-24T06:32:12;3.00;60.50
820;DHT22;392;48.838;2.322;2023-01-24T06:35:03;3.00;60.20
820;DHT22;392;48.838;2.322;2023-01-24T06:37:44;3.20;60.30
820;DHT22;392;48.838;2.322;2023-01-24T06:40:15;3.20;59.90
820;DHT22;392;48.838;2.322;2023-01-24T06:42:45;3.30;59.00
820;DHT22;392;48.838;2.322;2023-01-24T06:45:13;3.30;58.50
820;DHT22;392;48.838;2.322;2023-01-24T06:47:41;3.30;58.30
820;DHT22;392;48.838;2.322;2023-01-24T06:50:13;3.40;58.00
820;DHT22;392;48.838;2.322;2023-01-24T06:52:44;3.40;58.10
820;DHT22;392;48.838;2.322;2023-01-24T06:55:12;3.50;57.90
820;DHT22;392;48.838;2.322;2023-01-24T06:57:40;3.60;58.00
820;DHT22;392;48.838;2.322;2023-01-24T07:00:09;3.70;57.10
820;DHT22;392;48.838;2.322;2023-01-24T07:02:37;3.80;55.80
820;DHT22;392;48.838;2.322;2023-01-24T07:05:05;3.80;54.80
820;DHT22;392;48.838;2.322;2023-01-24T07:07:33;3.70;54.90
820;DHT22;392;48.838;2.322;2023-01-24T07:10:03;3.70;55.50
820;DHT22;392;48.838;2.322;2023-01-24T07:12:31;3.70;55.90
820;DHT22;392;48.838;2.322;2023-01-24T07:14:58;3.70;55.30
820;DHT22;392;48.838;2.322;2023-01-24T07:17:26;3.70;55.70
820;DHT22;392;48.838;2.322;2023-01-24T07:19:55;3.70;55.40
820;DHT22;392;48.838;2.322;2023-01-24T07:22:23;3.60;56.10
820;DHT22;392;48.838;2.322;2023-01-24T07:24:51;3.60;56.20
820;DHT22;392;48.838;2.322;2023-01-24T07:27:21;3.60;56.70
820;DHT22;392;48.838;2.322;2023-01-24T07:29:49;3.60;57.20
820;DHT22;392;48.838;2.322;2023-01-24T07:32:17;3.60;57.30
820;DHT22;392;48.838;2.322;2023-01-24T07:34:44;3.60;57.90
820;DHT22;392;48.838;2.322;2023-01-24T07:37:11;3.60;57.30
820;DHT22;392;48.838;2.322;2023-01-24T07:39:39;3.70;57.60
820;DHT22;392;48.838;2.322;2023-01-24T07:42:07;3.80;57.20
820;DHT22;392;48.838;2.322;2023-01-24T07:44:36;3.80;56.80
820;DHT22;392;48.838;2.322;2023-01-24T07:47:03;3.70;56.10
820;DHT22;392;48.838;2.322;2023-01-24T07:49:31;3.60;56.50
820;DHT22;392;48.838;2.322;2023-01-24T07:51:58;3.60;57.60
820;DHT22;392;48.838;2.322;2023-01-24T07:54:26;3.70;57.80
820;DHT22;392;48.838;2.322;2023-01-24T07:56:53;3.70;56.90
820;DHT22;392;48.838;2.322;2023-01-24T07:59:20;3.70;57.20
820;DHT22;392;48.838;2.322;2023-01-24T08:01:49;3.60;57.30
820;DHT22;392;48.838;2.322;2023-01-24T08:04:16;3.60;57.70
820;DHT22;392;48.838;2.322;2023-01-24T08:06:44;3.60;57.60
820;DHT22;392;48.838;2.322;2023-01-24T08:09:25;3.60;58.30
820;DHT22;392;48.838;2.322;2023-01-24T08:11:53;3.60;58.70
820;DHT22;392;48.838;2.322;2023-01-24T08:14:21;3.60;58.40
820;DHT22;392;48.838;2.322;2023-01-24T08:16:50;3.50;58.40
820;DHT22;392;48.838;2.322;2023-01-24T08:19:17;3.50;58.90
820;DHT22;392;48.838;2.322;2023-01-24T08:21:45;3.50;59.60
820;DHT22;392;48.838;2.322;2023-01-24T08:24:13;3.50;58.90
820;DHT22;392;48.838;2.322;2023-01-24T08:26:40;3.50;59.00
820;DHT22;392;48.838;2.322;2023-01-24T08:29:11;3.40;58.90
820;DHT22;392;48.838;2.322;2023-01-24T08:31:39;3.50;59.80
820;DHT22;392;48.838;2.322;2023-01-24T08:34:09;3.50;59.60
820;DHT22;392;48.838;2.322;2023-01-24T08:36:36;3.50;59.40
820;DHT22;392;48.838;2.322;2023-01-24T08:39:04;3.40;60.00
820;DHT22;392;48.838;2.322;2023-01-24T08:41:31;3.50;60.30
820;DHT22;392;48.838;2.322;2023-01-24T08:43:59;3.60;60.10
820;DHT22;392;48.838;2.322;2023-01-24T08:46:28;3.70;59.20
820;DHT22;392;48.838;2.322;2023-01-24T08:48:56;3.80;59.10
820;DHT22;392;48.838;2.322;2023-01-24T08:51:25;3.80;57.70
820;DHT22;392;48.838;2.322;2023-01-24T08:53:52;3.80;56.80
820;DHT22;392;48.838;2.322;2023-01-24T08:56:20;3.70;57.00
820;DHT22;392;48.838;2.322;2023-01-24T08:58:47;3.60;57.80
820;DHT22;392;48.838;2.322;2023-01-24T09:01:15;3.50;58.60
820;DHT22;392;48.838;2.322;2023-01-24T09:03:43;3.50;59.20
820;DHT22;392;48.838;2.322;2023-01-24T09:06:10;3.50;59.60
820;DHT22;392;48.838;2.322;2023-01-24T09:08:39;3.50;60.20
820;DHT22;392;48.838;2.322;2023-01-24T09:11:06;3.60;60.40
820;DHT22;392;48.838;2.322;2023-01-24T09:13:35;3.70;59.80
820;DHT22;392;48.838;2.322;2023-01-24T09:16:03;3.70;59.40
820;DHT22;392;48.838;2.322;2023-01-24T09:18:30;3.80;59.60
820;DHT22;392;48.838;2.322;2023-01-24T09:21:01;3.90;59.20
820;DHT22;392;48.838;2.322;2023-01-24T09:23:29;3.90;58.50
820;DHT22;392;48.838;2.322;2023-01-24T09:25:58;4.00;57.90
820;DHT22;392;48.838;2.322;2023-01-24T09:28:25;4.00;56.70
820;DHT22;392;48.838;2.322;2023-01-24T09:30:53;3.90;57.60
820;DHT22;392;48.838;2.322;2023-01-24T09:33:20;3.90;57.30
820;DHT22;392;48.838;2.322;2023-01-24T09:35:52;3.80;57.60
820;DHT22;392;48.838;2.322;2023-01-24T09:38:20;3.90;58.20
820;DHT22;392;48.838;2.322;2023-01-24T09:40:54;3.90;58.00
820;DHT22;392;48.838;2.322;2023-01-24T09:43:41;3.90;58.00
820;DHT22;392;48.838;2.322;2023-01-24T09:46:23;3.90;57.40
820;DHT22;392;48.838;2.322;2023-01-24T09:49:01;3.90;57.80
820;DHT22;392;48.838;2.322;2023-01-24T09:51:34;3.90;58.40
820;DHT22;392;48.838;2.322;2023-01-24T09:54:05;4.00;57.80
820;DHT22;392;48.838;2.322;2023-01-24T09:56:36;4.00;57.50
820;DHT22;392;48.838;2.322;2023-01-24T09:59:21;4.00;57.30
820;DHT22;392;48.838;2.322;2023-01-24T10:01:50;4.00;57.30
820;DHT22;392;48.838;2.322;2023-01-24T10:04:21;4.00;57.80
820;DHT22;392;48.838;2.322;2023-01-24T10:07:15;4.00;58.40
820;DHT22;392;48.838;2.322;2023-01-24T10:10:02;4.10;57.80
820;DHT22;392;48.838;2.322;2023-01-24T10:12:49;4.20;56.70
820;DHT22;392;48.838;2.322;2023-01-24T10:15:32;4.20;56.60
820;DHT22;392;48.838;2.322;2023-01-24T10:18:14;4.20;56.10
820;DHT22;392;48.838;2.322;2023-01-24T10:21:21;4.20;55.90
820;DHT22;392;48.838;2.322;2023-01-24T10:23:59;4.30;55.70
820;DHT22;392;48.838;2.322;2023-01-24T10:26:33;4.30;55.80
820;DHT22;392;48.838;2.322;2023-01-24T10:29:13;4.30;55.80
820;DHT22;392;48.838;2.322;2023-01-24T10:31:45;4.20;56.10
820;DHT22;392;48.838;2.322;2023-01-24T10:34:25;4.20;56.10
820;DHT22;392;48.838;2.322;2023-01-24T10:36:59;4.20;56.60
820;DHT22;392;48.838;2.322;2023-01-24T10:39:29;4.10;56.40
820;DHT22;392;48.838;2.322;2023-01-24T10:41:57;4.10;56.40
820;DHT22;392;48.838;2.322;2023-01-24T10:44:27;4.10;57.20
820;DHT22;392;48.838;2.322;2023-01-24T10:47:13;4.10;57.60
820;DHT22;392;48.838;2.322;2023-01-24T10:49:51;4.20;57.40
820;DHT22;392;48.838;2.322;2023-01-24T10:52:21;4.30;57.20
820;DHT22;392;48.838;2.322;2023-01-24T10:54:51;4.30;56.70
820;DHT22;392;48.838;2.322;2023-01-24T10:57:39;4.40;57.40
820;DHT22;392;48.838;2.322;2023-01-24T11:00:25;4.40;56.00
820;DHT22;392;48.838;2.322;2023-01-24T11:02:57;4.50;56.00
820;DHT22;392;48.838;2.322;2023-01-24T11:05:38;4.50;55.80
820;DHT22;392;48.838;2.322;2023-01-24T11:08:16;4.60;54.70
820;DHT22;392;48.838;2.322;2023-01-24T11:10:45;4.60;54.70
820;DHT22;392;48.838;2.322;2023-01-24T11:13:31;4.60;54.70
820;DHT22;392;48.838;2.322;2023-01-24T11:16:04;4.70;54.70
820;DHT22;392;48.838;2.322;2023-01-24T11:18:34;4.70;54.70
820;DHT22;392;48.838;2.322;2023-01-24T11:21:12;4.70;54.70
820;DHT22;392;48.838;2.322;2023-01-24T11:23:42;4.70;54.40
820;DHT22;392;48.838;2.322;2023-01-24T11:26:22;4.70;54.20
820;DHT22;392;48.838;2.322;2023-01-24T11:28:59;4.80;54.30
820;DHT22;392;48.838;2.322;2023-01-24T11:31:32;4.80;53.90
820;DHT22;392;48.838;2.322;2023-01-24T11:34:32;4.90;54.00
820;DHT22;392;48.838;2.322;2023-01-24T11:37:15;4.90;53.90
820;DHT22;392;48.838;2.322;2023-01-24T11:39:54;5.00;53.50
820;DHT22;392;48.838;2.322;2023-01-24T11:42:33;5.00;53.00
820;DHT22;392;48.838;2.322;2023-01-24T11:48:14;4.90;53.20
820;DHT22;392;48.838;2.322;2023-01-24T11:50:52;4.90;53.10
820;DHT22;392;48.838;2.322;2023-01-24T11:53:42;4.80;53.30
820;DHT22;392;48.838;2.322;2023-01-24T11:56:29;4.80;53.90
820;DHT22;392;48.838;2.322;2023-01-24T11:59:18;4.80;54.60
820;DHT22;392;48.838;2.322;2023-01-24T12:01:59;4.80;54.80
820;DHT22;392;48.838;2.322;2023-01-24T12:04:50;4.90;55.00
820;DHT22;392;48.838;2.322;2023-01-24T12:07:31;4.90;54.30
820;DHT22;392;48.838;2.322;2023-01-24T12:10:14;4.90;54.20
820;DHT22;392;48.838;2.322;2023-01-24T12:12:49;4.90;54.60
820;DHT22;392;48.838;2.322;2023-01-24T12:15:25;5.00;55.00
820;DHT22;392;48.838;2.322;2023-01-24T12:18:18;5.00;54.30
820;DHT22;392;48.838;2.322;2023-01-24T12:21:11;5.10;54.70
820;DHT22;392;48.838;2.322;2023-01-24T12:23:45;5.10;53.50
820;DHT22;392;48.838;2.322;2023-01-24T12:26:18;5.00;53.60
820;DHT22;392;48.838;2.322;2023-01-24T12:28:55;5.00;54.20
820;DHT22;392;48.838;2.322;2023-01-24T12:31:35;4.90;54.80
820;DHT22;392;48.838;2.322;2023-01-24T12:34:22;5.00;54.70
820;DHT22;392;48.838;2.322;2023-01-24T12:37:00;5.00;55.00
820;DHT22;392;48.838;2.322;2023-01-24T12:39:37;5.00;54.80
820;DHT22;392;48.838;2.322;2023-01-24T12:42:14;5.10;54.60
820;DHT22;392;48.838;2.322;2023-01-24T12:44:50;5.10;54.30
820;DHT22;392;48.838;2.322;2023-01-24T12:47:31;5.10;54.10
820;DHT22;392;48.838;2.322;2023-01-24T12:50:17;5.10;53.80
820;DHT22;392;48.838;2.322;2023-01-24T12:52:54;5.00;54.00
820;DHT22;392;48.838;2.322;2023-01-24T12:55:32;5.00;54.70
820;DHT22;392;48.838;2.322;2023-01-24T12:58:05;5.00;55.20
820;DHT22;392;48.838;2.322;2023-01-24T13:00:45;4.90;54.90
820;DHT22;392;48.838;2.322;2023-01-24T13:03:38;4.90;55.30
820;DHT22;392;48.838;2.322;2023-01-24T13:06:22;5.00;55.00
820;DHT22;392;48.838;2.322;2023-01-24T13:09:02;5.00;55.00
820;DHT22;392;48.838;2.322;2023-01-24T13:11:40;5.00;55.00
820;DHT22;392;48.838;2.322;2023-01-24T13:14:17;5.10;55.10
820;DHT22;392;48.838;2.322;2023-01-24T13:17:15;5.10;54.20
820;DHT22;392;48.838;2.322;2023-01-24T13:20:19;5.00;54.50
820;DHT22;392;48.838;2.322;2023-01-24T13:23:06;4.90;54.90
820;DHT22;392;48.838;2.322;2023-01-24T13:25:53;5.00;55.00
820;DHT22;392;48.838;2.322;2023-01-24T13:28:34;4.90;54.90
820;DHT22;392;48.838;2.322;2023-01-24T13:31:12;4.90;56.30
820;DHT22;392;48.838;2.322;2023-01-24T13:33:46;4.90;55.90
820;DHT22;392;48.838;2.322;2023-01-24T13:36:18;4.90;56.20
820;DHT22;392;48.838;2.322;2023-01-24T13:38:46;5.00;55.90
820;DHT22;392;48.838;2.322;2023-01-24T13:41:17;5.00;55.20
820;DHT22;392;48.838;2.322;2023-01-24T13:44:00;5.00;55.10
820;DHT22;392;48.838;2.322;2023-01-24T13:46:56;5.00;55.00
820;DHT22;392;48.838;2.322;2023-01-24T13:49:37;5.00;55.00
820;DHT22;392;48.838;2.322;2023-01-24T13:52:40;4.90;55.50
820;DHT22;392;48.838;2.322;2023-01-24T13:58:30;4.80;56.30
820;DHT22;392;48.838;2.322;2023-01-24T14:01:01;4.90;57.20
820;DHT22;392;48.838;2.322;2023-01-24T14:03:32;5.00;56.70
820;DHT22;392;48.838;2.322;2023-01-24T14:06:10;5.00;55.90
820;DHT22;392;48.838;2.322;2023-01-24T14:08:48;5.00;55.90
820;DHT22;392;48.838;2.322;2023-01-24T14:14:30;5.00;55.90
820;DHT22;392;48.838;2.322;2023-01-24T14:17:27;5.00;56.40
820;DHT22;392;48.838;2.322;2023-01-24T14:20:42;5.00;56.60
820;DHT22;392;48.838;2.322;2023-01-24T14:23:17;4.90;56.50
820;DHT22;392;48.838;2.322;2023-01-24T14:25:51;4.90;56.70
820;DHT22;392;48.838;2.322;2023-01-24T14:28:30;5.00;57.20
820;DHT22;392;48.838;2.322;2023-01-24T14:31:04;5.00;56.60
820;DHT22;392;48.838;2.322;2023-01-24T14:33:42;5.00;57.20
820;DHT22;392;48.838;2.322;2023-01-24T14:36:26;5.00;57.90
820;DHT22;392;48.838;2.322;2023-01-24T14:39:12;5.00;56.30
820;DHT22;392;48.838;2.322;2023-01-24T14:41:45;4.90;56.50
820;DHT22;392;48.838;2.322;2023-01-24T14:44:17;4.90;57.30
820;DHT22;392;48.838;2.322;2023-01-24T14:46:58;5.00;57.60
820;DHT22;392;48.838;2.322;2023-01-24T14:49:29;5.00;57.40
820;DHT22;392;48.838;2.322;2023-01-24T14:51:59;5.10;57.20
820;DHT22;392;48.838;2.322;2023-01-24T14:54:27;5.10;56.90
820;DHT22;392;48.838;2.322;2023-01-24T14:56:54;5.10;56.60
820;DHT22;392;48.838;2.322;2023-01-24T14:59:22;5.00;56.10
820;DHT22;392;48.838;2.322;2023-01-24T15:01:51;5.00;56.70
820;DHT22;392;48.838;2.322;2023-01-24T15:04:25;5.00;57.10
820;DHT22;392;48.838;2.322;2023-01-24T15:07:11;5.00;57.30
820;DHT22;392;48.838;2.322;2023-01-24T15:09:39;5.00;56.80
820;DHT22;392;48.838;2.322;2023-01-24T15:12:22;5.00;56.90
820;DHT22;392;48.838;2.322;2023-01-24T15:14:52;5.00;57.10
820;DHT22;392;48.838;2.322;2023-01-24T15:17:23;5.00;56.70
820;DHT22;392;48.838;2.322;2023-01-24T15:19:54;4.90;57.00
820;DHT22;392;48.838;2.322;2023-01-24T15:22:26;4.90;57.30
820;DHT22;392;48.838;2.322;2023-01-24T15:24:56;4.80;57.30
820;DHT22;392;48.838;2.322;2023-01-24T15:27:37;4.80;58.10
820;DHT22;392;48.838;2.322;2023-01-24T15:30:20;4.80;57.90
820;DHT22;392;48.838;2.322;2023-01-24T15:32:48;4.70;58.00
820;DHT22;392;48.838;2.322;2023-01-24T15:35:30;4.70;58.10
820;DHT22;392;48.838;2.322;2023-01-24T15:38:22;4.70;58.60
820;DHT22;392;48.838;2.322;2023-01-24T15:40:54;4.60;59.10
820;DHT22;392;48.838;2.322;2023-01-24T15:43:27;4.60;59.70
820;DHT22;392;48.838;2.322;2023-01-24T15:49:23;4.60;59.50
820;DHT22;392;48.838;2.322;2023-01-24T15:52:19;4.60;60.20
820;DHT22;392;48.838;2.322;2023-01-24T15:54:48;4.60;60.70
820;DHT22;392;48.838;2.322;2023-01-24T15:57:23;4.70;60.00
820;DHT22;392;48.838;2.322;2023-01-24T15:59:55;4.80;59.90
820;DHT22;392;48.838;2.322;2023-01-24T16:02:24;4.80;58.90
820;DHT22;392;48.838;2.322;2023-01-24T16:04:52;4.80;58.40
820;DHT22;392;48.838;2.322;2023-01-24T16:07:21;4.70;58.40
820;DHT22;392;48.838;2.322;2023-01-24T16:09:49;4.70;58.50
820;DHT22;392;48.838;2.322;2023-01-24T16:12:19;4.60;59.40
820;DHT22;392;48.838;2.322;2023-01-24T16:14:48;4.70;59.30
820;DHT22;392;48.838;2.322;2023-01-24T16:17:19;4.60;59.10
820;DHT22;392;48.838;2.322;2023-01-24T16:19:47;4.60;59.40
820;DHT22;392;48.838;2.322;2023-01-24T16:22:14;4.60;59.60
820;DHT22;392;48.838;2.322;2023-01-24T16:24:43;4.60;60.00
820;DHT22;392;48.838;2.322;2023-01-24T16:27:12;4.60;59.60
820;DHT22;392;48.838;2.322;2023-01-24T16:29:41;4.60;59.60
820;DHT22;392;48.838;2.322;2023-01-24T16:32:19;4.60;59.80
820;DHT22;392;48.838;2.322;2023-01-24T16:34:48;4.60;59.80
820;DHT22;392;48.838;2.322;2023-01-24T16:37:15;4.60;60.50
820;DHT22;392;48.838;2.322;2023-01-24T16:39:45;4.80;60.50
820;DHT22;392;48.838;2.322;2023-01-24T16:42:14;4.80;59.20
820;DHT22;392;48.838;2.322;2023-01-24T16:44:42;4.80;59.00
820;DHT22;392;48.838;2.322;2023-01-24T16:47:10;4.80;58.60
820;DHT22;392;48.838;2.322;2023-01-24T16:49:37;4.80;58.20
820;DHT22;392;48.838;2.322;2023-01-24T16:52:05;4.60;58.20
820;DHT22;392;48.838;2.322;2023-01-24T16:54:32;4.50;58.80
820;DHT22;392;48.838;2.322;2023-01-24T16:57:01;4.40;59.80
820;DHT22;392;48.838;2.322;2023-01-24T16:59:28;4.40;60.80
820;DHT22;392;48.838;2.322;2023-01-24T17:01:55;4.50;61.20
820;DHT22;392;48.838;2.322;2023-01-24T17:04:23;4.40;61.30
820;DHT22;392;48.838;2.322;2023-01-24T17:06:50;4.50;62.00
820;DHT22;392;48.838;2.322;2023-01-24T17:09:17;4.50;61.30
820;DHT22;392;48.838;2.322;2023-01-24T17:11:45;4.60;62.10
820;DHT22;392;48.838;2.322;2023-01-24T17:14:13;4.60;61.00
820;DHT22;392;48.838;2.322;2023-01-24T17:16:41;4.50;60.80
820;DHT22;392;48.838;2.322;2023-01-24T17:19:08;4.60;61.20
820;DHT22;392;48.838;2.322;2023-01-24T17:21:35;4.70;61.20
820;DHT22;392;48.838;2.322;2023-01-24T17:24:03;4.70;60.40
820;DHT22;392;48.838;2.322;2023-01-24T17:26:30;4.70;59.30
820;DHT22;392;48.838;2.322;2023-01-24T17:28:58;4.70;59.90
820;DHT22;392;48.838;2.322;2023-01-24T17:31:27;4.80;59.40
820;DHT22;392;48.838;2.322;2023-01-24T17:33:54;4.80;59.30
820;DHT22;392;48.838;2.322;2023-01-24T17:36:21;4.80;59.90
820;DHT22;392;48.838;2.322;2023-01-24T17:38:51;4.80;59.00
820;DHT22;392;48.838;2.322;2023-01-24T17:41:21;4.80;58.50
820;DHT22;392;48.838;2.322;2023-01-24T17:43:49;4.70;59.50
820;DHT22;392;48.838;2.322;2023-01-24T17:46:17;4.80;59.40